This demonstration page uses our WeatherBlox Daily Observations layout. Learn more.

41.55636, -103.73856

Hourly Observations for August 11, 2018

Temp ( °F °C ) Dew Point ( °F °C ) Humidity (%) Winds ( mph kmh ) Pressure ( in mb ) Visibility ( mi km ) Precip ( " mm )
12:58 am 00:58 Clear 62 16.9 49 9.5 62 62 SW 9 15 30.09 1019 10 16.09344 0 0
1:58 am 01:58 Clear 60 15.6 49 9.2 66 66 WSW 7 11 30.06 1018 10 16.09344 0 0
2:58 am 02:58 Clear 61 16.2 48 8.9 62 62 WSW 10 17 30.06 1018 10 16.09344 0 0
3:58 am 03:58 Clear 59 15.1 47 8.6 65 65 WSW 9 15 30.06 1018 10 16.09344 0 0
4:58 am 04:58 Clear 57 14.1 47 8.5 69 69 WSW 7 11 30.06 1018 10 16.09344 0 0
5:58 am 05:58 Clear 56 13.4 47 8.6 73 73 SW 7 11 30.09 1019 10 16.09344 0 0
6:58 am 06:58 Sunny 58 14.4 49 9.2 71 71 W 6 9 30.09 1019 10 16.09344 0 0
7:58 am 07:58 Sunny 64 17.9 50 10.2 61 61 WSW 6 9 30.09 1019 10 16.09344 0 0
8:58 am 08:58 Sunny 73 22.7 49 9.7 44 44 SW 9 15 30.09 1019 10 16.09344 0 0
9:58 am 09:58 Sunny 78 25.6 46 7.8 32 32 SSW 16 26 30.09 1019 10 16.09344 0 0
10:58 am 10:58 Sunny 80 26.6 45 7.1 29 29 S 16 26 30.09 1019 10 16.09344 0 0
11:58 am 11:58 Sunny 81 27.1 45 7.3 29 29 S 17 28 30.09 1019 10 16.09344 0 0
12:58 pm 12:58 Sunny 81 27.2 47 8.1 30 30 SSE 12 19 30.06 1018 10 16.09344 0 0
1:58 pm 13:58 Sunny 83 28.4 39 4 21 21 S 10 17 30.06 1018 10 16.09344 0 0
2:58 pm 14:58 Sunny 85 29.2 38 3.6 19 19 S 12 19 30 1016 10 16.09344 0 0
3:58 pm 15:58 Sunny 85 29.6 37 2.6 18 18 S 8 13 30 1016 10 16.09344 0 0
4:58 pm 16:58 Sunny 85 29.6 37 2.7 18 18 S 13 20 30 1016 10 16.09344 0 0
5:58 pm 17:58 Sunny 84 28.8 41 4.8 22 22 S 12 19 30 1016 10 16.09344 0 0
6:58 pm 18:58 Sunny 79 26 46 8 32 32 SSE 9 15 30 1016 10 16.09344 0 0
7:58 pm 19:58 Sunny 72 22.2 49 9.2 44 44 SSE 8 13 30 1016 10 16.09344 0 0
8:58 pm 20:58 Clear 68 19.8 49 9.4 51 51 SSE 12 19 30.03 1017 10 16.09344 0 0
9:58 pm 21:58 Clear 66 19 49 9.2 53 53 S 12 19 30.03 1017 10 16.09344 0 0
10:58 pm 22:58 Clear 66 18.8 47 8.5 51 51 S 12 19 30.03 1017 10 16.09344 0 0
11:58 pm 23:58 Clear 62 16.8 46 8 56 56 S 12 19 30.03 1017 10 16.09344 0 0

Powered by AerisWeather